Ewa Beach, HI

11:28 AM HST on August 30, 2014 (GMT -1000)
Ewa | Change Station
CLOSE
Current Station
Personal Weather Station
Location: Ewa Beach, HI
Elevation: 46 ft
Nearby Weather Stations
Active Advisory: High Surf Advisory

Elev 46 ft 21.34 °N, 158.03 °W | Updated 17 minutes ago

Clear
Clear
88.8 °F
Feels Like 92 °F
N
2.7
Wind Variable Wind from NE
Gusts 8.3 mph

Today
High -- | Low -- °F
--% Chance of Precip.
Yesterday
High -- | Low -- °F
Precip. -- in
6:15 AM 6:49 PM
Waxing Crescent, 24% visible
Pressure 29.99 in
Visibility 10.0 miles
Clouds Clear
Heat Index 92 °F
Dew Point 68 °F
Humidity 50%
Rainfall -999.00 in
Snow Depth Not available.
UV 10 out of 12
Pollen Not available.
Air Quality Not available.
Flu Activity Not available.
METAR PHJR 302053Z VRB05KT 10SM CLR 31/18 A2997 RMK AO2 SLP155 T03060183 50002

More Conditions Fewer Conditions

Pressure 29.99 in
Visibility 10.0 miles
Clouds Clear
Heat Index 92 °F
Dew Point 68 °F
Humidity 50%
Rainfall -999.00 in
Snow Depth Not available.
UV 10 out of 12
Pollen Not available.
Air Quality Not available.
Flu Activity Not available.
METAR PHJR 302053Z VRB05KT 10SM CLR 31/18 A2997 RMK AO2 SLP155 T03060183 50002

More Conditions Fewer Conditions

10-Day Weather Forecast

Almanac

Astronomy

Aug. 30, 2014 Rise Set
Actual Time 6:15 AM HST 6:49 PM HST
Civil Twilight 5:52 AM HST 7:12 PM HST
Nautical Twilight 5:26 AM HST 7:38 PM HST
Astronomical Twilight 4:59 AM HST 8:05 PM HST
Moon 10:33 AM HST 10:14 PM HST
Length of Visible Light 13h 19m
Length of Day
12h 34m
Tomorrow will be 1m 11s shorter.
Waxing Crescent, 24% of the Moon is Illuminated
Today
Waxing Crescent
Sep 2
First Quarter
Sep 8
Full
Sep 15
Last Quarter
Sep 24
New

Today's Extremes

State Highs State Lows

Community

WunderPhotos

Upload Photos

1,748,635 photos uploaded!

WunderBlogs® & News

Nearby

Snow Depth

Station Depth Elevation
No new snow has been reported.

Earthquake Activity

City Distance Mag. Time & Date
No recent earthquake activity has been reported nearby.
Minimum magnitude displayed is 2.5.

Coastal Water Temperatures

Place Temperature
No Stations Reporting

Nearby Weather Stations